createdAt,value
2024-03-02T00:00:54.373Z,27.35
2024-03-02T00:03:21.316Z,28.17
2024-03-02T00:05:52.884Z,27.00
2024-03-02T00:08:25.162Z,26.70
2024-03-02T00:10:51.792Z,25.85
2024-03-02T00:13:23.715Z,27.88
2024-03-02T00:15:54.460Z,27.58
2024-03-02T00:18:25.456Z,29.63
2024-03-02T00:20:55.840Z,30.27
2024-03-02T00:23:23.189Z,30.05
2024-03-02T00:25:50.780Z,30.80
2024-03-02T00:30:57.125Z,31.15
2024-03-02T00:33:24.573Z,31.25
2024-03-02T00:35:51.492Z,28.85
2024-03-02T00:38:18.178Z,27.83
2024-03-02T00:40:45.745Z,28.60
2024-03-02T00:45:57.244Z,28.13
2024-03-02T00:48:23.653Z,32.00
2024-03-02T00:50:53.979Z,30.77
2024-03-02T00:53:26.974Z,31.02
2024-03-02T00:55:53.775Z,31.02
2024-03-02T00:58:20.193Z,31.02
2024-03-02T01:00:46.935Z,29.98
2024-03-02T01:03:13.760Z,29.60
2024-03-02T01:05:44.255Z,28.38
2024-03-02T01:08:11.527Z,29.67
2024-03-02T01:10:37.939Z,29.17
2024-03-02T01:13:04.712Z,28.30
2024-03-02T01:15:31.258Z,28.83
2024-03-02T01:17:57.751Z,29.58
2024-03-02T01:20:24.154Z,29.90
2024-03-02T01:22:50.617Z,29.52
2024-03-02T01:25:17.085Z,30.70
2024-03-02T01:27:43.545Z,30.85
2024-03-02T01:30:10.352Z,31.60
2024-03-02T01:32:39.015Z,31.08
2024-03-02T01:35:06.957Z,30.08
2024-03-02T01:37:33.488Z,30.13
2024-03-02T01:39:59.995Z,29.65
2024-03-02T01:42:26.597Z,30.77
2024-03-02T01:44:53.046Z,31.57
2024-03-02T01:47:19.564Z,30.77
2024-03-02T01:49:45.956Z,31.35
2024-03-02T01:52:12.579Z,31.35
2024-03-02T01:54:39.043Z,31.30
2024-03-02T01:57:05.742Z,31.00
2024-03-02T01:59:32.152Z,30.85
2024-03-02T02:01:58.527Z,30.83
2024-03-02T02:04:28.724Z,29.90
2024-03-02T02:06:55.298Z,31.95
2024-03-02T02:09:21.930Z,29.90
2024-03-02T02:11:48.452Z,32.83
2024-03-02T02:14:15.027Z,33.33
2024-03-02T02:16:41.407Z,34.70
2024-03-02T02:19:07.851Z,32.30
2024-03-02T02:21:34.621Z,32.38
2024-03-02T02:24:02.311Z,32.22
2024-03-02T02:26:28.738Z,30.98
2024-03-02T02:28:55.162Z,29.98
2024-03-02T02:31:21.630Z,30.17
2024-03-02T02:33:48.153Z,30.65
2024-03-02T02:36:14.616Z,29.70
2024-03-02T02:38:45.549Z,30.10
2024-03-02T02:41:11.965Z,29.90
2024-03-02T02:43:38.424Z,31.30
2024-03-02T02:46:04.957Z,31.20
2024-03-02T02:48:31.424Z,32.03
2024-03-02T02:50:57.852Z,30.73
2024-03-02T02:53:24.270Z,32.63
2024-03-02T02:55:50.697Z,30.25
2024-03-02T02:58:17.141Z,30.70
2024-03-02T03:00:43.613Z,30.23
2024-03-02T03:03:10.073Z,32.17
2024-03-02T03:05:36.462Z,33.30
2024-03-02T03:08:03.811Z,32.88
2024-03-02T03:10:30.252Z,32.25
2024-03-02T03:12:57.375Z,32.47
2024-03-02T03:15:24.188Z,33.97
2024-03-02T03:17:51.989Z,32.72
2024-03-02T03:20:18.482Z,34.13
2024-03-02T03:22:45.218Z,32.80
2024-03-02T03:25:11.672Z,31.35
2024-03-02T03:27:38.294Z,31.55
2024-03-02T03:30:07.137Z,35.25
2024-03-02T03:32:33.663Z,34.83
2024-03-02T03:35:00.163Z,36.67
2024-03-02T03:37:28.779Z,37.20
2024-03-02T03:39:55.345Z,34.65
2024-03-02T03:42:21.873Z,35.13
2024-03-02T03:44:48.329Z,34.70
2024-03-02T03:47:14.761Z,35.67
2024-03-02T03:49:41.161Z,35.00
2024-03-02T03:52:07.565Z,33.63
2024-03-02T03:54:34.154Z,36.38
2024-03-02T03:57:00.624Z,34.20
2024-03-02T03:59:27.033Z,35.05
2024-03-02T04:01:54.093Z,34.83
2024-03-02T04:04:20.489Z,36.63
2024-03-02T04:06:46.926Z,37.60
2024-03-02T04:09:13.381Z,37.42
2024-03-02T04:11:39.858Z,37.45
2024-03-02T04:14:07.294Z,36.90
2024-03-02T04:19:00.126Z,35.97
2024-03-02T04:21:26.679Z,36.67
2024-03-02T04:23:53.132Z,37.63
2024-03-02T04:26:23.198Z,34.83
2024-03-02T04:28:49.689Z,35.22
2024-03-02T04:31:17.255Z,37.08
2024-03-02T04:33:44.188Z,36.88
2024-03-02T04:36:10.808Z,36.38
2024-03-02T04:38:37.770Z,37.27
2024-03-02T04:41:08.187Z,36.10
2024-03-02T04:43:35.477Z,37.50
2024-03-02T04:46:02.670Z,37.53
2024-03-02T04:48:29.638Z,38.22
2024-03-02T04:50:56.078Z,37.77
2024-03-02T04:53:22.493Z,37.95
2024-03-02T04:56:07.321Z,37.58
2024-03-02T04:58:33.734Z,38.55
2024-03-02T05:01:00.178Z,38.13
2024-03-02T05:03:26.877Z,38.53
2024-03-02T05:05:53.279Z,37.07
2024-03-02T05:08:19.729Z,36.38
2024-03-02T05:10:46.932Z,37.58
2024-03-02T05:13:13.362Z,35.45
2024-03-02T05:15:40.097Z,36.60
2024-03-02T05:18:06.716Z,37.53
2024-03-02T05:20:33.300Z,38.20
2024-03-02T05:22:59.691Z,37.47
2024-03-02T05:25:26.143Z,39.25
2024-03-02T05:27:52.719Z,38.40
2024-03-02T05:30:19.258Z,39.88
2024-03-02T05:32:45.744Z,36.90
2024-03-02T05:35:13.866Z,39.08
2024-03-02T05:37:40.588Z,39.00
2024-03-02T05:40:07.779Z,38.53
2024-03-02T05:42:34.248Z,40.33
2024-03-02T05:45:00.819Z,39.35
2024-03-02T05:47:27.340Z,40.60
2024-03-02T05:49:53.769Z,43.53
2024-03-02T05:52:20.247Z,45.70
2024-03-02T05:54:46.721Z,44.97
2024-03-02T05:57:33.222Z,42.25
2024-03-02T06:00:00.061Z,42.50
2024-03-02T06:02:26.470Z,42.33
2024-03-02T06:04:56.163Z,42.42
2024-03-02T06:07:22.613Z,42.70
2024-03-02T06:09:51.906Z,43.67
2024-03-02T06:12:18.672Z,43.10
2024-03-02T06:14:45.142Z,44.33
2024-03-02T06:17:11.516Z,42.10
2024-03-02T06:19:38.057Z,43.97
2024-03-02T06:22:05.064Z,44.13
2024-03-02T06:24:32.098Z,43.83
2024-03-02T06:26:58.496Z,45.88
2024-03-02T06:29:24.913Z,44.88
2024-03-02T06:31:53.367Z,45.95
2024-03-02T06:34:21.157Z,45.80
2024-03-02T06:36:47.573Z,44.25
2024-03-02T06:39:14.045Z,44.13
2024-03-02T06:41:40.480Z,43.63
2024-03-02T06:44:07.604Z,45.42
2024-03-02T06:46:33.997Z,44.88
2024-03-02T06:49:00.442Z,45.83
2024-03-02T06:51:26.926Z,45.15
2024-03-02T06:53:53.359Z,42.58
2024-03-02T06:56:19.759Z,42.72
2024-03-02T06:58:46.158Z,42.03
2024-03-02T07:01:12.665Z,41.63
2024-03-02T07:03:40.512Z,40.90
2024-03-02T07:06:07.073Z,40.88
2024-03-02T07:08:33.494Z,41.08
2024-03-02T07:10:59.995Z,41.47
2024-03-02T07:13:26.675Z,40.08
2024-03-02T07:16:05.374Z,42.10
2024-03-02T07:18:32.211Z,41.15
2024-03-02T07:21:02.539Z,41.90
2024-03-02T07:23:29.224Z,41.65
2024-03-02T07:28:27.684Z,41.70
2024-03-02T07:33:27.728Z,41.30
2024-03-02T07:35:57.469Z,41.58
2024-03-02T07:38:24.267Z,40.88
2024-03-02T07:40:51.782Z,42.50
2024-03-02T07:45:45.086Z,42.10
2024-03-02T07:48:11.707Z,42.05
2024-03-02T07:50:39.926Z,44.33
2024-03-02T07:53:06.989Z,43.05
2024-03-02T07:55:33.439Z,44.03
2024-03-02T07:58:01.007Z,43.08
2024-03-02T08:00:28.791Z,41.20
2024-03-02T08:02:56.415Z,41.03
2024-03-02T08:05:22.862Z,39.90
2024-03-02T08:07:49.444Z,40.05
2024-03-02T08:10:15.829Z,38.93
2024-03-02T08:12:42.800Z,39.72
2024-03-02T08:15:09.521Z,38.35
2024-03-02T08:17:38.142Z,38.55
2024-03-02T08:20:06.220Z,38.47
2024-03-02T08:22:32.663Z,40.63
2024-03-02T08:24:59.810Z,42.22
2024-03-02T08:27:26.307Z,40.13
2024-03-02T08:29:52.728Z,41.47
2024-03-02T08:32:19.307Z,40.65
2024-03-02T08:34:45.703Z,40.60
2024-03-02T08:37:12.703Z,39.53
2024-03-02T08:39:39.562Z,38.40
2024-03-02T08:42:06.327Z,40.20
2024-03-02T08:44:32.837Z,38.33
2024-03-02T08:46:59.601Z,40.72
2024-03-02T08:49:25.996Z,39.63
2024-03-02T08:51:56.280Z,39.72
2024-03-02T08:54:23.132Z,37.70
2024-03-02T08:56:52.708Z,36.23
2024-03-02T08:59:19.213Z,37.42
2024-03-02T09:01:46.326Z,36.33
2024-03-02T09:04:12.910Z,37.25
2024-03-02T09:06:39.542Z,36.03
2024-03-02T09:09:06.059Z,37.40
2024-03-02T09:11:33.572Z,37.60
2024-03-02T09:16:32.363Z,37.20
2024-03-02T09:18:59.586Z,36.92
2024-03-02T09:21:26.648Z,35.53
2024-03-02T09:23:53.130Z,34.85
2024-03-02T09:26:21.821Z,33.05
2024-03-02T09:28:48.340Z,32.22
2024-03-02T09:31:14.938Z,33.28
2024-03-02T09:33:41.490Z,33.08
2024-03-02T09:36:18.665Z,32.30
2024-03-02T09:38:45.129Z,31.17
2024-03-02T09:41:11.879Z,29.73
2024-03-02T09:43:39.154Z,27.98
2024-03-02T09:46:06.014Z,28.52
2024-03-02T09:48:32.532Z,28.52
2024-03-02T09:51:00.189Z,29.83
2024-03-02T09:53:31.113Z,27.92
2024-03-02T09:55:57.568Z,27.25
2024-03-02T09:58:24.008Z,25.95
2024-03-02T10:00:50.733Z,25.38
2024-03-02T10:03:19.891Z,25.67
2024-03-02T10:05:46.359Z,24.95
2024-03-02T10:08:12.798Z,24.02
2024-03-02T10:10:41.530Z,23.33
2024-03-02T10:13:09.237Z,21.35
2024-03-02T10:15:36.580Z,22.33
2024-03-02T10:18:03.127Z,22.55
2024-03-02T10:20:30.329Z,21.87
2024-03-02T10:23:10.801Z,20.73
2024-03-02T10:25:43.700Z,20.83
2024-03-02T10:28:19.153Z,20.90
2024-03-02T10:30:49.980Z,19.75
2024-03-02T10:33:18.460Z,17.48
2024-03-02T10:35:45.113Z,18.88
2024-03-02T10:38:12.351Z,18.75
2024-03-02T10:40:38.869Z,16.02
2024-03-02T10:43:07.146Z,17.25
2024-03-02T10:45:34.481Z,15.25
2024-03-02T10:48:03.563Z,17.25
2024-03-02T10:50:31.104Z,17.02
2024-03-02T10:55:24.422Z,15.05
2024-03-02T10:57:57.819Z,14.77
2024-03-02T11:00:30.714Z,15.98
2024-03-02T11:02:58.976Z,13.13
2024-03-02T11:05:32.531Z,14.20
2024-03-02T11:08:04.534Z,14.77
2024-03-02T11:10:52.974Z,15.55
2024-03-02T11:13:25.598Z,15.73
2024-03-02T11:15:56.703Z,15.50
2024-03-02T11:18:23.590Z,16.10
2024-03-02T11:20:50.217Z,17.00
2024-03-02T11:23:16.760Z,16.67
2024-03-02T11:25:43.338Z,17.27
2024-03-02T11:28:12.852Z,16.20
2024-03-02T11:30:39.786Z,16.90
2024-03-02T11:33:12.381Z,15.68
2024-03-02T11:35:44.291Z,15.52
2024-03-02T11:38:11.375Z,16.35
2024-03-02T11:40:41.051Z,15.80
2024-03-02T11:43:09.137Z,16.08
2024-03-02T11:45:41.744Z,17.40
2024-03-02T11:48:13.493Z,17.42
2024-03-02T11:50:51.681Z,17.10
2024-03-02T11:53:19.423Z,18.15
2024-03-02T11:55:48.162Z,15.63
2024-03-02T11:58:22.039Z,15.18
2024-03-02T12:00:52.197Z,15.20
2024-03-02T12:03:18.771Z,14.02
2024-03-02T12:05:45.378Z,14.90
2024-03-02T12:08:13.922Z,14.80
2024-03-02T12:10:40.704Z,13.68
2024-03-02T12:13:08.800Z,14.40
2024-03-02T12:15:40.229Z,13.23
2024-03-02T12:18:07.470Z,13.57
2024-03-02T12:20:34.919Z,13.70
2024-03-02T12:23:03.716Z,14.07
2024-03-02T12:25:32.409Z,13.25
2024-03-02T12:28:01.108Z,13.15
2024-03-02T12:30:31.999Z,13.20
2024-03-02T12:32:58.559Z,12.25
2024-03-02T12:35:26.032Z,12.00
2024-03-02T12:40:21.470Z,12.10
2024-03-02T12:42:48.114Z,11.30
2024-03-02T12:45:15.071Z,11.03
2024-03-02T12:47:43.056Z,9.90
2024-03-02T12:50:11.061Z,9.75
2024-03-02T12:52:37.530Z,10.25
2024-03-02T12:55:07.932Z,11.18
2024-03-02T12:57:35.525Z,10.80
2024-03-02T13:00:14.076Z,10.23
2024-03-02T13:02:41.927Z,11.13
2024-03-02T13:05:15.156Z,10.82
2024-03-02T13:07:46.238Z,10.63
2024-03-02T13:10:13.776Z,10.52
2024-03-02T13:15:07.182Z,11.25
2024-03-02T13:17:38.163Z,10.63
2024-03-02T13:20:11.928Z,10.95
2024-03-02T13:22:38.781Z,10.80
2024-03-02T13:25:06.588Z,10.80
2024-03-02T13:27:34.006Z,11.18
2024-03-02T13:30:00.711Z,11.57
2024-03-02T13:32:27.503Z,10.30
2024-03-02T13:34:54.049Z,11.55
2024-03-02T13:37:22.311Z,11.10
2024-03-02T13:39:48.962Z,11.07
2024-03-02T13:42:16.446Z,11.55
2024-03-02T13:47:18.172Z,10.65
2024-03-02T13:49:46.887Z,11.02
2024-03-02T13:52:18.334Z,10.85
2024-03-02T13:54:46.427Z,10.50
2024-03-02T13:57:13.328Z,11.05
2024-03-02T13:59:40.718Z,10.65
2024-03-02T14:02:07.566Z,10.15
2024-03-02T14:04:37.909Z,10.85
2024-03-02T14:07:05.276Z,10.48
2024-03-02T14:09:31.966Z,11.90
2024-03-02T14:11:58.466Z,11.55
2024-03-02T14:14:25.665Z,11.38
2024-03-02T14:16:52.599Z,12.55
2024-03-02T14:19:19.081Z,12.85
2024-03-02T14:21:45.647Z,11.63
2024-03-02T14:24:12.201Z,11.80
2024-03-02T14:26:38.741Z,13.05
2024-03-02T14:29:06.256Z,11.30
2024-03-02T14:34:00.112Z,11.52
2024-03-02T14:36:28.709Z,10.95
2024-03-02T14:38:55.812Z,11.35
2024-03-02T14:41:22.718Z,11.50
2024-03-02T14:43:50.586Z,11.38
2024-03-02T14:46:18.034Z,11.98
2024-03-02T14:51:11.752Z,11.40
2024-03-02T14:53:39.183Z,12.23
2024-03-02T15:00:59.619Z,11.68
2024-03-02T15:03:26.205Z,11.87
2024-03-02T15:05:52.942Z,13.10
2024-03-02T15:08:19.413Z,13.48
2024-03-02T15:10:46.209Z,13.02
2024-03-02T15:13:12.897Z,12.93
2024-03-02T15:15:39.473Z,12.77
2024-03-02T15:18:06.857Z,13.27
2024-03-02T15:20:33.610Z,12.93
2024-03-02T15:23:00.438Z,13.60
2024-03-02T15:25:26.935Z,19.60
2024-03-02T15:27:53.510Z,17.08
2024-03-02T15:30:20.134Z,16.10
2024-03-02T15:32:46.529Z,13.30
2024-03-02T15:35:13.139Z,12.98
2024-03-02T15:37:39.543Z,13.97
2024-03-02T15:40:07.814Z,16.63
2024-03-02T15:42:35.118Z,15.02
2024-03-02T15:45:02.075Z,13.82
2024-03-02T15:47:28.959Z,13.43
2024-03-02T15:49:55.522Z,14.05
2024-03-02T15:52:22.597Z,13.50
2024-03-02T15:54:51.120Z,14.82
2024-03-02T15:57:18.076Z,14.13
2024-03-02T15:59:45.293Z,14.48
2024-03-02T16:02:11.922Z,14.38
2024-03-02T16:04:38.418Z,15.15
2024-03-02T16:07:04.931Z,16.05
2024-03-02T16:09:31.446Z,15.17
2024-03-02T16:11:58.028Z,15.93
2024-03-02T16:14:24.536Z,17.40
2024-03-02T16:16:51.101Z,16.58
2024-03-02T16:19:25.585Z,17.23
2024-03-02T16:21:59.059Z,21.63
2024-03-02T16:24:25.691Z,18.08
2024-03-02T16:26:52.140Z,16.83
2024-03-02T16:29:18.680Z,16.80
2024-03-02T16:31:45.220Z,17.63
2024-03-02T16:34:11.892Z,16.95
2024-03-02T16:36:39.376Z,16.77
2024-03-02T16:41:34.206Z,17.73
2024-03-02T16:44:03.397Z,16.63
2024-03-02T16:46:30.530Z,16.25
2024-03-02T16:48:57.021Z,16.90
2024-03-02T16:51:23.495Z,16.95
2024-03-02T16:53:49.914Z,16.38
2024-03-02T16:56:16.848Z,16.17
2024-03-02T16:58:43.242Z,18.70
2024-03-02T17:01:09.870Z,17.48
2024-03-02T17:03:36.332Z,16.73
2024-03-02T17:06:03.142Z,19.05
2024-03-02T17:08:29.644Z,20.42
2024-03-02T17:10:56.252Z,22.23
2024-03-02T17:13:22.780Z,19.13
2024-03-02T17:15:49.229Z,22.48
2024-03-02T17:18:15.876Z,22.37
2024-03-02T17:20:42.342Z,23.48
2024-03-02T17:23:08.906Z,23.80
2024-03-02T17:25:35.367Z,21.10
2024-03-02T17:28:33.074Z,28.65
2024-03-02T17:31:00.912Z,21.15
2024-03-02T17:33:27.391Z,36.38
2024-03-02T17:35:54.330Z,32.00
2024-03-02T17:38:21.006Z,27.38
2024-03-02T17:40:47.452Z,27.15
2024-03-02T17:43:14.165Z,30.75
2024-03-02T17:45:41.006Z,28.15
2024-03-02T17:48:13.140Z,27.42
2024-03-02T17:50:39.976Z,25.73
2024-03-02T17:53:06.715Z,28.15
2024-03-02T17:55:33.177Z,32.20
2024-03-02T17:57:59.809Z,49.22
2024-03-02T18:00:26.526Z,33.13
2024-03-02T18:02:53.026Z,26.67
2024-03-02T18:05:19.443Z,25.42
2024-03-02T18:07:45.984Z,29.85
2024-03-02T18:10:12.844Z,29.37
2024-03-02T18:12:39.728Z,28.20
2024-03-02T18:15:10.125Z,28.70
2024-03-02T18:17:37.050Z,33.92
2024-03-02T18:20:05.798Z,38.97
2024-03-02T18:22:33.259Z,31.27
2024-03-02T18:25:00.837Z,28.60
2024-03-02T18:27:28.094Z,35.63
2024-03-02T18:29:55.329Z,34.17
2024-03-02T18:32:22.088Z,45.65
2024-03-02T18:34:48.769Z,43.03
2024-03-02T18:37:16.501Z,37.17
2024-03-02T18:39:43.466Z,47.85
2024-03-02T18:42:10.027Z,42.38
2024-03-02T18:44:36.564Z,54.25
2024-03-02T18:47:03.158Z,43.33
2024-03-02T18:49:29.779Z,38.20
2024-03-02T18:51:56.396Z,40.87
2024-03-02T18:54:22.908Z,37.73
2024-03-02T18:56:49.390Z,37.20
2024-03-02T18:59:16.260Z,46.03
2024-03-02T19:01:42.965Z,40.55
2024-03-02T19:04:09.665Z,35.92
2024-03-02T19:06:36.205Z,38.80
2024-03-02T19:09:02.767Z,36.45
2024-03-02T19:11:29.344Z,37.50
2024-03-02T19:13:55.893Z,36.15
2024-03-02T19:16:22.787Z,36.50
2024-03-02T19:18:49.638Z,39.47
2024-03-02T19:21:16.487Z,36.60
2024-03-02T19:23:45.437Z,36.53
2024-03-02T19:26:19.386Z,35.08
2024-03-02T19:28:47.294Z,36.92
2024-03-02T19:31:14.335Z,35.42
2024-03-02T19:33:40.869Z,37.08
2024-03-02T19:36:07.563Z,37.50
2024-03-02T19:38:36.081Z,40.20
2024-03-02T19:41:02.829Z,39.58
2024-03-02T19:43:29.461Z,50.10
2024-03-02T19:45:55.954Z,82.47
2024-03-02T19:48:22.437Z,48.42
2024-03-02T19:50:49.112Z,41.25
2024-03-02T19:53:15.678Z,43.70
2024-03-02T19:55:45.071Z,40.45
2024-03-02T19:58:11.859Z,38.15
2024-03-02T20:00:38.426Z,38.17
2024-03-02T20:03:04.972Z,37.53
2024-03-02T20:05:31.477Z,36.65
2024-03-02T20:07:57.917Z,38.45
2024-03-02T20:10:24.601Z,38.25
2024-03-02T20:12:51.153Z,38.45
2024-03-02T20:15:19.871Z,41.20
2024-03-02T20:17:47.521Z,40.35
2024-03-02T20:25:08.064Z,38.90
2024-03-02T20:27:34.664Z,36.65
2024-03-02T20:30:01.185Z,35.67
2024-03-02T20:32:27.870Z,34.33
2024-03-02T20:34:54.475Z,34.67
2024-03-02T20:37:24.834Z,36.67
2024-03-02T20:39:53.920Z,36.50
2024-03-02T20:42:20.503Z,35.97
2024-03-02T20:44:46.915Z,35.75
2024-03-02T20:47:13.742Z,37.17
2024-03-02T20:49:43.490Z,39.17
2024-03-02T20:52:10.651Z,39.03
2024-03-02T20:54:38.173Z,40.65
2024-03-02T20:59:34.807Z,35.20
2024-03-02T21:02:01.587Z,37.42
2024-03-02T21:04:28.120Z,34.25
2024-03-02T21:06:54.610Z,33.55
2024-03-02T21:09:21.391Z,32.42
2024-03-02T21:11:49.534Z,32.72
2024-03-02T21:14:16.299Z,32.63
2024-03-02T21:16:42.831Z,32.40
2024-03-02T21:19:10.210Z,32.10
2024-03-02T21:21:39.021Z,33.00
2024-03-02T21:24:06.085Z,31.00
2024-03-02T21:26:32.667Z,33.30
2024-03-02T21:28:59.276Z,31.87
2024-03-02T21:31:25.717Z,31.70
2024-03-02T21:33:52.189Z,32.40
2024-03-02T21:36:18.649Z,32.72
2024-03-02T21:38:45.160Z,32.42
2024-03-02T21:41:11.552Z,31.38
2024-03-02T21:43:38.543Z,30.35
2024-03-02T21:46:05.154Z,30.77
2024-03-02T21:48:31.708Z,31.23
2024-03-02T21:50:58.247Z,30.40
2024-03-02T21:53:24.847Z,29.47
2024-03-02T21:55:51.251Z,30.13
2024-03-02T21:58:17.780Z,28.63
2024-03-02T22:00:44.331Z,30.77
2024-03-02T22:03:10.934Z,29.07
2024-03-02T22:05:37.498Z,30.27
2024-03-02T22:08:04.094Z,27.30
2024-03-02T22:10:30.890Z,27.63
2024-03-02T22:12:57.524Z,28.30
2024-03-02T22:15:24.027Z,27.53
2024-03-02T22:17:50.651Z,25.85
2024-03-02T22:20:17.119Z,24.48
2024-03-02T22:22:43.564Z,26.10
2024-03-02T22:25:10.531Z,26.40
2024-03-02T22:27:40.885Z,25.48
2024-03-02T22:30:09.214Z,25.98
2024-03-02T22:32:35.740Z,24.50
2024-03-02T22:35:02.270Z,25.88
2024-03-02T22:37:28.727Z,24.63
2024-03-02T22:39:55.363Z,23.52
2024-03-02T22:42:21.843Z,24.23
2024-03-02T22:44:48.348Z,23.00
2024-03-02T22:47:14.829Z,23.05
2024-03-02T22:49:41.334Z,22.98
2024-03-02T22:52:07.838Z,22.95
2024-03-02T22:54:34.359Z,22.47
2024-03-02T22:57:02.125Z,22.13
2024-03-02T22:59:28.741Z,21.90
2024-03-02T23:01:55.589Z,21.13
2024-03-02T23:04:22.455Z,21.95
2024-03-02T23:06:49.591Z,20.35
2024-03-02T23:09:16.216Z,20.00
2024-03-02T23:11:42.701Z,20.55
2024-03-02T23:14:09.317Z,19.92
2024-03-02T23:16:38.317Z,20.15
2024-03-02T23:19:04.968Z,19.88
2024-03-02T23:21:31.614Z,18.75
2024-03-02T23:23:58.827Z,18.45
2024-03-02T23:26:26.236Z,17.80
2024-03-02T23:28:52.867Z,16.52
2024-03-02T23:31:19.686Z,17.97
2024-03-02T23:33:48.258Z,16.65
2024-03-02T23:36:14.838Z,17.05
2024-03-02T23:38:41.260Z,17.55
2024-03-02T23:41:11.638Z,16.98
2024-03-02T23:43:38.728Z,18.40
2024-03-02T23:46:07.527Z,18.63
2024-03-02T23:48:35.167Z,16.33
2024-03-02T23:53:29.170Z,16.65
2024-03-02T23:55:59.242Z,16.85
2024-03-02T23:58:25.899Z,16.92
